sensor_id;sensor_type;location;lat;lon;timestamp;P1;durP1;ratioP1;P2;durP2;ratioP2
80936;SDS011;70395;51.382;7.074;2023-10-13T00:00:32;14.07;;;10.37;;
80936;SDS011;70395;51.382;7.074;2023-10-13T00:03:08;12.07;;;9.10;;
80936;SDS011;70395;51.382;7.074;2023-10-13T00:05:40;10.77;;;8.57;;
80936;SDS011;70395;51.382;7.074;2023-10-13T00:08:08;12.00;;;8.50;;
80936;SDS011;70395;51.382;7.074;2023-10-13T00:10:35;8.73;;;7.83;;
80936;SDS011;70395;51.382;7.074;2023-10-13T00:13:01;11.70;;;9.10;;
80936;SDS011;70395;51.382;7.074;2023-10-13T00:15:38;9.90;;;8.40;;
80936;SDS011;70395;51.382;7.074;2023-10-13T00:18:21;10.87;;;8.90;;
80936;SDS011;70395;51.382;7.074;2023-10-13T00:20:52;15.87;;;8.70;;
80936;SDS011;70395;51.382;7.074;2023-10-13T00:23:21;10.37;;;8.87;;
80936;SDS011;70395;51.382;7.074;2023-10-13T00:25:51;11.33;;;9.43;;
80936;SDS011;70395;51.382;7.074;2023-10-13T00:28:28;10.43;;;8.77;;
80936;SDS011;70395;51.382;7.074;2023-10-13T00:31:11;11.60;;;9.53;;
80936;SDS011;70395;51.382;7.074;2023-10-13T00:33:39;12.70;;;9.80;;
80936;SDS011;70395;51.382;7.074;2023-10-13T00:36:14;12.33;;;8.70;;
80936;SDS011;70395;51.382;7.074;2023-10-13T00:38:44;10.40;;;9.30;;
80936;SDS011;70395;51.382;7.074;2023-10-13T00:41:14;14.97;;;9.60;;
80936;SDS011;70395;51.382;7.074;2023-10-13T00:43:45;11.83;;;9.40;;
80936;SDS011;70395;51.382;7.074;2023-10-13T00:46:32;12.10;;;8.93;;
80936;SDS011;70395;51.382;7.074;2023-10-13T00:49:01;12.53;;;8.90;;
80936;SDS011;70395;51.382;7.074;2023-10-13T00:51:30;12.23;;;9.63;;
80936;SDS011;70395;51.382;7.074;2023-10-13T00:54:06;13.77;;;9.93;;
80936;SDS011;70395;51.382;7.074;2023-10-13T00:56:40;13.67;;;8.90;;
80936;SDS011;70395;51.382;7.074;2023-10-13T00:59:23;12.43;;;9.60;;
80936;SDS011;70395;51.382;7.074;2023-10-13T01:01:50;9.67;;;8.67;;
80936;SDS011;70395;51.382;7.074;2023-10-13T01:04:22;11.87;;;8.77;;
80936;SDS011;70395;51.382;7.074;2023-10-13T01:06:52;10.93;;;8.37;;
80936;SDS011;70395;51.382;7.074;2023-10-13T01:09:18;11.40;;;9.10;;
80936;SDS011;70395;51.382;7.074;2023-10-13T01:11:44;10.13;;;9.13;;
80936;SDS011;70395;51.382;7.074;2023-10-13T01:14:17;14.37;;;9.27;;
80936;SDS011;70395;51.382;7.074;2023-10-13T01:16:48;10.63;;;7.90;;
80936;SDS011;70395;51.382;7.074;2023-10-13T01:19:18;9.90;;;7.70;;
80936;SDS011;70395;51.382;7.074;2023-10-13T01:21:49;9.23;;;8.33;;
80936;SDS011;70395;51.382;7.074;2023-10-13T01:24:27;11.10;;;8.87;;
80936;SDS011;70395;51.382;7.074;2023-10-13T01:26:56;9.43;;;7.80;;
80936;SDS011;70395;51.382;7.074;2023-10-13T01:29:28;12.87;;;8.00;;
80936;SDS011;70395;51.382;7.074;2023-10-13T01:31:55;9.67;;;7.90;;
80936;SDS011;70395;51.382;7.074;2023-10-13T01:34:20;11.83;;;8.90;;
80936;SDS011;70395;51.382;7.074;2023-10-13T01:36:49;10.00;;;8.70;;
80936;SDS011;70395;51.382;7.074;2023-10-13T01:39:21;12.10;;;8.90;;
80936;SDS011;70395;51.382;7.074;2023-10-13T01:41:53;13.00;;;9.60;;
80936;SDS011;70395;51.382;7.074;2023-10-13T01:44:20;11.00;;;8.67;;
80936;SDS011;70395;51.382;7.074;2023-10-13T01:46:51;10.07;;;8.13;;
80936;SDS011;70395;51.382;7.074;2023-10-13T01:49:17;12.00;;;9.13;;
80936;SDS011;70395;51.382;7.074;2023-10-13T01:51:43;10.93;;;8.10;;
80936;SDS011;70395;51.382;7.074;2023-10-13T01:54:12;10.23;;;7.93;;
80936;SDS011;70395;51.382;7.074;2023-10-13T01:56:40;11.90;;;8.30;;
80936;SDS011;70395;51.382;7.074;2023-10-13T01:59:08;10.90;;;8.53;;
80936;SDS011;70395;51.382;7.074;2023-10-13T02:01:38;9.53;;;7.93;;
80936;SDS011;70395;51.382;7.074;2023-10-13T02:04:08;10.80;;;8.50;;
80936;SDS011;70395;51.382;7.074;2023-10-13T02:06:35;10.77;;;9.00;;
80936;SDS011;70395;51.382;7.074;2023-10-13T02:09:06;11.40;;;8.10;;
80936;SDS011;70395;51.382;7.074;2023-10-13T02:11:42;13.07;;;8.73;;
80936;SDS011;70395;51.382;7.074;2023-10-13T02:14:12;10.70;;;9.17;;
80936;SDS011;70395;51.382;7.074;2023-10-13T02:16:42;13.20;;;8.70;;
80936;SDS011;70395;51.382;7.074;2023-10-13T02:19:11;11.60;;;8.00;;
80936;SDS011;70395;51.382;7.074;2023-10-13T02:21:40;13.63;;;8.60;;
80936;SDS011;70395;51.382;7.074;2023-10-13T02:24:09;9.27;;;8.10;;
80936;SDS011;70395;51.382;7.074;2023-10-13T02:26:44;9.87;;;8.87;;
80936;SDS011;70395;51.382;7.074;2023-10-13T02:29:10;10.17;;;9.20;;
80936;SDS011;70395;51.382;7.074;2023-10-13T02:31:39;12.40;;;10.13;;
80936;SDS011;70395;51.382;7.074;2023-10-13T02:34:07;10.40;;;7.80;;
80936;SDS011;70395;51.382;7.074;2023-10-13T02:36:34;10.07;;;8.57;;
80936;SDS011;70395;51.382;7.074;2023-10-13T02:39:18;9.53;;;7.70;;
80936;SDS011;70395;51.382;7.074;2023-10-13T02:41:51;12.43;;;8.90;;
80936;SDS011;70395;51.382;7.074;2023-10-13T02:44:20;10.23;;;7.93;;
80936;SDS011;70395;51.382;7.074;2023-10-13T02:46:56;8.77;;;7.83;;
80936;SDS011;70395;51.382;7.074;2023-10-13T02:49:23;10.63;;;7.63;;
80936;SDS011;70395;51.382;7.074;2023-10-13T02:51:51;8.40;;;7.60;;
80936;SDS011;70395;51.382;7.074;2023-10-13T02:54:20;10.10;;;8.00;;
80936;SDS011;70395;51.382;7.074;2023-10-13T02:56:46;9.90;;;7.87;;
80936;SDS011;70395;51.382;7.074;2023-10-13T02:59:29;9.23;;;8.33;;
80936;SDS011;70395;51.382;7.074;2023-10-13T03:02:05;8.60;;;7.40;;
80936;SDS011;70395;51.382;7.074;2023-10-13T03:04:46;7.97;;;7.03;;
80936;SDS011;70395;51.382;7.074;2023-10-13T03:07:14;12.67;;;9.00;;
80936;SDS011;70395;51.382;7.074;2023-10-13T03:09:53;13.60;;;8.50;;
80936;SDS011;70395;51.382;7.074;2023-10-13T03:12:35;11.93;;;8.80;;
80936;SDS011;70395;51.382;7.074;2023-10-13T03:15:02;10.07;;;8.40;;
80936;SDS011;70395;51.382;7.074;2023-10-13T03:17:46;10.30;;;8.53;;
80936;SDS011;70395;51.382;7.074;2023-10-13T03:20:13;11.43;;;9.50;;
80936;SDS011;70395;51.382;7.074;2023-10-13T03:22:47;10.37;;;9.27;;
80936;SDS011;70395;51.382;7.074;2023-10-13T03:25:17;10.67;;;9.40;;
80936;SDS011;70395;51.382;7.074;2023-10-13T03:27:54;9.27;;;8.20;;
80936;SDS011;70395;51.382;7.074;2023-10-13T03:30:24;9.50;;;8.53;;
80936;SDS011;70395;51.382;7.074;2023-10-13T03:33:09;11.33;;;9.50;;
80936;SDS011;70395;51.382;7.074;2023-10-13T03:35:37;9.73;;;8.73;;
80936;SDS011;70395;51.382;7.074;2023-10-13T03:38:08;10.63;;;9.63;;
80936;SDS011;70395;51.382;7.074;2023-10-13T03:40:45;11.57;;;9.23;;
80936;SDS011;70395;51.382;7.074;2023-10-13T03:43:21;10.40;;;9.30;;
80936;SDS011;70395;51.382;7.074;2023-10-13T03:45:48;10.97;;;9.87;;
80936;SDS011;70395;51.382;7.074;2023-10-13T03:48:26;12.13;;;10.93;;
80936;SDS011;70395;51.382;7.074;2023-10-13T03:50:52;11.20;;;9.50;;
80936;SDS011;70395;51.382;7.074;2023-10-13T03:53:33;13.90;;;9.90;;
80936;SDS011;70395;51.382;7.074;2023-10-13T03:56:01;14.60;;;9.07;;
80936;SDS011;70395;51.382;7.074;2023-10-13T03:58:41;13.50;;;9.80;;
80936;SDS011;70395;51.382;7.074;2023-10-13T04:01:11;15.73;;;10.17;;
80936;SDS011;70395;51.382;7.074;2023-10-13T04:03:40;12.57;;;9.93;;
80936;SDS011;70395;51.382;7.074;2023-10-13T04:06:25;11.87;;;10.03;;
80936;SDS011;70395;51.382;7.074;2023-10-13T04:09:13;13.47;;;9.73;;
80936;SDS011;70395;51.382;7.074;2023-10-13T04:11:57;10.93;;;9.13;;
80936;SDS011;70395;51.382;7.074;2023-10-13T04:14:32;11.03;;;9.53;;
80936;SDS011;70395;51.382;7.074;2023-10-13T04:17:19;13.90;;;9.87;;
80936;SDS011;70395;51.382;7.074;2023-10-13T04:19:49;11.73;;;9.60;;
80936;SDS011;70395;51.382;7.074;2023-10-13T04:22:49;12.87;;;9.23;;
80936;SDS011;70395;51.382;7.074;2023-10-13T04:25:25;11.57;;;9.60;;
80936;SDS011;70395;51.382;7.074;2023-10-13T04:28:12;11.00;;;9.10;;
80936;SDS011;70395;51.382;7.074;2023-10-13T04:33:20;12.13;;;8.80;;
80936;SDS011;70395;51.382;7.074;2023-10-13T04:36:21;16.17;;;9.00;;
80936;SDS011;70395;51.382;7.074;2023-10-13T04:38:46;14.10;;;9.30;;
80936;SDS011;70395;51.382;7.074;2023-10-13T04:41:36;15.13;;;8.63;;
80936;SDS011;70395;51.382;7.074;2023-10-13T04:44:06;11.63;;;8.03;;
80936;SDS011;70395;51.382;7.074;2023-10-13T04:46:56;11.50;;;8.90;;
80936;SDS011;70395;51.382;7.074;2023-10-13T04:49:24;9.17;;;8.03;;
80936;SDS011;70395;51.382;7.074;2023-10-13T04:51:57;9.93;;;8.10;;
80936;SDS011;70395;51.382;7.074;2023-10-13T04:54:28;11.60;;;9.27;;
80936;SDS011;70395;51.382;7.074;2023-10-13T04:56:59;12.60;;;9.30;;
80936;SDS011;70395;51.382;7.074;2023-10-13T04:59:44;9.50;;;8.50;;
80936;SDS011;70395;51.382;7.074;2023-10-13T05:02:30;11.90;;;8.63;;
80936;SDS011;70395;51.382;7.074;2023-10-13T05:05:03;15.00;;;9.70;;
80936;SDS011;70395;51.382;7.074;2023-10-13T05:07:31;12.00;;;8.77;;
80936;SDS011;70395;51.382;7.074;2023-10-13T05:10:17;8.90;;;8.00;;
80936;SDS011;70395;51.382;7.074;2023-10-13T05:13:01;9.93;;;8.27;;
80936;SDS011;70395;51.382;7.074;2023-10-13T05:16:02;12.50;;;9.00;;
80936;SDS011;70395;51.382;7.074;2023-10-13T05:18:47;11.03;;;7.80;;
80936;SDS011;70395;51.382;7.074;2023-10-13T05:21:32;12.37;;;8.00;;
80936;SDS011;70395;51.382;7.074;2023-10-13T05:24:17;10.63;;;8.13;;
80936;SDS011;70395;51.382;7.074;2023-10-13T05:27:01;10.03;;;8.63;;
80936;SDS011;70395;51.382;7.074;2023-10-13T05:29:46;8.80;;;7.90;;
80936;SDS011;70395;51.382;7.074;2023-10-13T05:32:32;11.93;;;8.17;;
80936;SDS011;70395;51.382;7.074;2023-10-13T05:35:17;16.27;;;9.60;;
80936;SDS011;70395;51.382;7.074;2023-10-13T05:38:03;9.73;;;8.70;;
80936;SDS011;70395;51.382;7.074;2023-10-13T05:40:58;10.30;;;8.30;;
80936;SDS011;70395;51.382;7.074;2023-10-13T05:43:44;11.30;;;8.17;;
80936;SDS011;70395;51.382;7.074;2023-10-13T05:46:30;10.40;;;8.53;;
80936;SDS011;70395;51.382;7.074;2023-10-13T05:49:14;8.87;;;7.33;;
80936;SDS011;70395;51.382;7.074;2023-10-13T05:51:43;10.93;;;7.73;;
80936;SDS011;70395;51.382;7.074;2023-10-13T05:54:13;9.70;;;7.73;;
80936;SDS011;70395;51.382;7.074;2023-10-13T05:59:29;8.27;;;7.47;;
80936;SDS011;70395;51.382;7.074;2023-10-13T06:02:15;13.97;;;7.70;;
80936;SDS011;70395;51.382;7.074;2023-10-13T06:05:02;10.53;;;6.90;;
80936;SDS011;70395;51.382;7.074;2023-10-13T06:07:52;9.23;;;7.00;;
80936;SDS011;70395;51.382;7.074;2023-10-13T06:10:37;9.80;;;6.80;;
80936;SDS011;70395;51.382;7.074;2023-10-13T06:13:22;10.80;;;6.93;;
80936;SDS011;70395;51.382;7.074;2023-10-13T06:16:07;13.10;;;7.77;;
80936;SDS011;70395;51.382;7.074;2023-10-13T06:18:53;12.73;;;7.57;;
80936;SDS011;70395;51.382;7.074;2023-10-13T06:21:38;13.30;;;8.07;;
80936;SDS011;70395;51.382;7.074;2023-10-13T06:24:22;10.43;;;6.70;;
80936;SDS011;70395;51.382;7.074;2023-10-13T06:27:07;11.10;;;7.27;;
80936;SDS011;70395;51.382;7.074;2023-10-13T06:29:51;9.33;;;6.90;;
80936;SDS011;70395;51.382;7.074;2023-10-13T06:32:18;8.93;;;5.90;;
80936;SDS011;70395;51.382;7.074;2023-10-13T06:34:45;11.50;;;7.47;;
80936;SDS011;70395;51.382;7.074;2023-10-13T06:37:12;7.90;;;5.87;;
80936;SDS011;70395;51.382;7.074;2023-10-13T06:39:55;8.90;;;7.00;;
80936;SDS011;70395;51.382;7.074;2023-10-13T06:42:27;10.63;;;7.20;;
80936;SDS011;70395;51.382;7.074;2023-10-13T06:44:57;8.43;;;7.07;;
80936;SDS011;70395;51.382;7.074;2023-10-13T06:47:25;10.90;;;7.83;;
80936;SDS011;70395;51.382;7.074;2023-10-13T06:49:52;9.07;;;7.30;;
80936;SDS011;70395;51.382;7.074;2023-10-13T06:52:22;10.73;;;7.40;;
80936;SDS011;70395;51.382;7.074;2023-10-13T06:54:54;13.23;;;8.00;;
80936;SDS011;70395;51.382;7.074;2023-10-13T06:57:20;11.87;;;7.50;;
80936;SDS011;70395;51.382;7.074;2023-10-13T06:59:47;11.10;;;8.13;;
80936;SDS011;70395;51.382;7.074;2023-10-13T07:02:13;14.40;;;8.60;;
80936;SDS011;70395;51.382;7.074;2023-10-13T07:04:48;12.03;;;8.13;;
80936;SDS011;70395;51.382;7.074;2023-10-13T07:07:36;13.50;;;8.33;;
80936;SDS011;70395;51.382;7.074;2023-10-13T07:10:10;11.80;;;6.67;;
80936;SDS011;70395;51.382;7.074;2023-10-13T07:12:40;9.47;;;7.33;;
80936;SDS011;70395;51.382;7.074;2023-10-13T07:15:09;9.67;;;6.90;;
80936;SDS011;70395;51.382;7.074;2023-10-13T07:17:45;8.73;;;6.87;;
80936;SDS011;70395;51.382;7.074;2023-10-13T07:20:12;8.73;;;6.90;;
80936;SDS011;70395;51.382;7.074;2023-10-13T07:22:49;12.53;;;6.97;;
80936;SDS011;70395;51.382;7.074;2023-10-13T07:25:36;12.10;;;7.10;;
80936;SDS011;70395;51.382;7.074;2023-10-13T07:28:03;14.23;;;7.83;;
80936;SDS011;70395;51.382;7.074;2023-10-13T07:30:31;11.00;;;7.80;;
80936;SDS011;70395;51.382;7.074;2023-10-13T07:33:04;9.63;;;7.30;;
80936;SDS011;70395;51.382;7.074;2023-10-13T07:35:31;10.93;;;7.30;;
80936;SDS011;70395;51.382;7.074;2023-10-13T07:38:01;15.30;;;6.87;;
80936;SDS011;70395;51.382;7.074;2023-10-13T07:40:27;11.90;;;7.67;;
80936;SDS011;70395;51.382;7.074;2023-10-13T07:42:56;14.13;;;6.30;;
80936;SDS011;70395;51.382;7.074;2023-10-13T07:45:38;9.53;;;6.47;;
80936;SDS011;70395;51.382;7.074;2023-10-13T07:48:09;10.90;;;6.57;;
80936;SDS011;70395;51.382;7.074;2023-10-13T07:50:46;10.07;;;6.10;;
80936;SDS011;70395;51.382;7.074;2023-10-13T07:53:23;10.67;;;6.90;;
80936;SDS011;70395;51.382;7.074;2023-10-13T07:55:52;11.30;;;6.50;;
80936;SDS011;70395;51.382;7.074;2023-10-13T07:58:23;11.40;;;6.87;;
80936;SDS011;70395;51.382;7.074;2023-10-13T08:00:50;10.10;;;6.17;;
80936;SDS011;70395;51.382;7.074;2023-10-13T08:03:39;8.70;;;5.90;;
80936;SDS011;70395;51.382;7.074;2023-10-13T08:06:05;15.60;;;8.10;;
80936;SDS011;70395;51.382;7.074;2023-10-13T08:08:36;11.67;;;5.67;;
80936;SDS011;70395;51.382;7.074;2023-10-13T08:11:06;11.50;;;6.30;;
80936;SDS011;70395;51.382;7.074;2023-10-13T08:13:46;9.60;;;5.60;;
80936;SDS011;70395;51.382;7.074;2023-10-13T08:16:12;10.47;;;6.37;;
80936;SDS011;70395;51.382;7.074;2023-10-13T08:18:48;12.67;;;6.30;;
80936;SDS011;70395;51.382;7.074;2023-10-13T08:21:15;7.10;;;5.17;;
80936;SDS011;70395;51.382;7.074;2023-10-13T08:23:44;11.97;;;6.00;;
80936;SDS011;70395;51.382;7.074;2023-10-13T08:26:19;12.00;;;5.33;;
80936;SDS011;70395;51.382;7.074;2023-10-13T08:29:02;8.90;;;4.93;;
80936;SDS011;70395;51.382;7.074;2023-10-13T08:31:44;13.63;;;5.57;;
80936;SDS011;70395;51.382;7.074;2023-10-13T08:34:32;9.67;;;5.50;;
80936;SDS011;70395;51.382;7.074;2023-10-13T08:37:12;14.43;;;5.40;;
80936;SDS011;70395;51.382;7.074;2023-10-13T08:39:59;8.90;;;5.27;;
80936;SDS011;70395;51.382;7.074;2023-10-13T08:42:32;9.13;;;5.37;;
80936;SDS011;70395;51.382;7.074;2023-10-13T08:45:13;16.90;;;5.20;;
80936;SDS011;70395;51.382;7.074;2023-10-13T08:47:56;8.10;;;4.80;;
80936;SDS011;70395;51.382;7.074;2023-10-13T08:50:45;13.07;;;5.73;;
80936;SDS011;70395;51.382;7.074;2023-10-13T08:53:17;13.60;;;5.37;;
80936;SDS011;70395;51.382;7.074;2023-10-13T08:55:58;7.77;;;5.20;;
80936;SDS011;70395;51.382;7.074;2023-10-13T08:58:36;8.60;;;5.40;;
80936;SDS011;70395;51.382;7.074;2023-10-13T09:01:18;10.37;;;5.10;;
80936;SDS011;70395;51.382;7.074;2023-10-13T09:04:04;11.60;;;5.03;;
80936;SDS011;70395;51.382;7.074;2023-10-13T09:06:49;14.87;;;6.83;;
80936;SDS011;70395;51.382;7.074;2023-10-13T09:09:28;8.53;;;5.00;;
80936;SDS011;70395;51.382;7.074;2023-10-13T09:12:22;10.60;;;5.57;;
80936;SDS011;70395;51.382;7.074;2023-10-13T09:15:10;12.03;;;5.33;;
80936;SDS011;70395;51.382;7.074;2023-10-13T09:17:42;7.80;;;5.20;;
80936;SDS011;70395;51.382;7.074;2023-10-13T09:20:16;9.73;;;5.40;;
80936;SDS011;70395;51.382;7.074;2023-10-13T09:23:14;12.53;;;5.97;;
80936;SDS011;70395;51.382;7.074;2023-10-13T09:25:50;13.23;;;6.03;;
80936;SDS011;70395;51.382;7.074;2023-10-13T09:28:23;15.00;;;6.10;;
80936;SDS011;70395;51.382;7.074;2023-10-13T09:30:54;8.23;;;5.50;;
80936;SDS011;70395;51.382;7.074;2023-10-13T09:33:27;10.37;;;6.03;;
80936;SDS011;70395;51.382;7.074;2023-10-13T09:36:00;11.90;;;5.50;;
80936;SDS011;70395;51.382;7.074;2023-10-13T09:38:35;14.83;;;5.50;;
80936;SDS011;70395;51.382;7.074;2023-10-13T09:41:06;11.00;;;5.70;;
80936;SDS011;70395;51.382;7.074;2023-10-13T09:43:51;9.17;;;5.33;;
80936;SDS011;70395;51.382;7.074;2023-10-13T09:46:22;14.07;;;5.83;;
80936;SDS011;70395;51.382;7.074;2023-10-13T09:48:59;8.80;;;5.50;;
80936;SDS011;70395;51.382;7.074;2023-10-13T09:51:59;11.03;;;6.20;;
80936;SDS011;70395;51.382;7.074;2023-10-13T09:54:29;8.80;;;5.47;;
80936;SDS011;70395;51.382;7.074;2023-10-13T09:57:15;9.27;;;5.43;;
80936;SDS011;70395;51.382;7.074;2023-10-13T09:59:50;9.63;;;6.30;;
80936;SDS011;70395;51.382;7.074;2023-10-13T10:02:31;11.20;;;5.90;;
80936;SDS011;70395;51.382;7.074;2023-10-13T10:05:00;12.73;;;6.00;;
80936;SDS011;70395;51.382;7.074;2023-10-13T10:07:53;9.50;;;5.83;;
80936;SDS011;70395;51.382;7.074;2023-10-13T10:10:23;11.50;;;5.60;;
80936;SDS011;70395;51.382;7.074;2023-10-13T10:13:21;8.70;;;6.00;;
80936;SDS011;70395;51.382;7.074;2023-10-13T10:16:07;8.40;;;5.47;;
80936;SDS011;70395;51.382;7.074;2023-10-13T10:18:45;9.60;;;6.23;;
80936;SDS011;70395;51.382;7.074;2023-10-13T10:21:11;10.90;;;6.40;;
80936;SDS011;70395;51.382;7.074;2023-10-13T10:23:40;11.50;;;6.10;;
80936;SDS011;70395;51.382;7.074;2023-10-13T10:26:12;10.23;;;6.67;;
80936;SDS011;70395;51.382;7.074;2023-10-13T10:28:41;10.70;;;6.20;;
80936;SDS011;70395;51.382;7.074;2023-10-13T10:31:09;8.20;;;6.20;;
80936;SDS011;70395;51.382;7.074;2023-10-13T10:33:40;12.27;;;6.40;;
80936;SDS011;70395;51.382;7.074;2023-10-13T10:36:06;10.43;;;5.70;;
80936;SDS011;70395;51.382;7.074;2023-10-13T10:38:51;12.40;;;7.30;;
80936;SDS011;70395;51.382;7.074;2023-10-13T10:41:29;9.23;;;6.00;;
80936;SDS011;70395;51.382;7.074;2023-10-13T10:44:16;11.80;;;6.83;;
80936;SDS011;70395;51.382;7.074;2023-10-13T10:47:11;12.97;;;6.53;;
80936;SDS011;70395;51.382;7.074;2023-10-13T10:50:02;10.33;;;6.10;;
80936;SDS011;70395;51.382;7.074;2023-10-13T10:52:54;11.90;;;6.53;;
80936;SDS011;70395;51.382;7.074;2023-10-13T10:55:22;11.10;;;6.73;;
80936;SDS011;70395;51.382;7.074;2023-10-13T10:57:59;10.90;;;7.00;;
80936;SDS011;70395;51.382;7.074;2023-10-13T11:00:33;10.27;;;6.97;;
80936;SDS011;70395;51.382;7.074;2023-10-13T11:03:15;8.73;;;6.70;;
80936;SDS011;70395;51.382;7.074;2023-10-13T11:05:45;8.63;;;7.10;;
80936;SDS011;70395;51.382;7.074;2023-10-13T11:08:24;11.43;;;7.43;;
80936;SDS011;70395;51.382;7.074;2023-10-13T11:10:57;10.23;;;7.10;;
80936;SDS011;70395;51.382;7.074;2023-10-13T11:13:27;13.73;;;8.10;;
80936;SDS011;70395;51.382;7.074;2023-10-13T11:16:21;10.37;;;6.97;;
80936;SDS011;70395;51.382;7.074;2023-10-13T11:19:02;11.70;;;7.50;;
80936;SDS011;70395;51.382;7.074;2023-10-13T11:21:30;14.60;;;7.13;;
80936;SDS011;70395;51.382;7.074;2023-10-13T11:23:56;11.80;;;6.80;;
80936;SDS011;70395;51.382;7.074;2023-10-13T11:26:34;9.70;;;6.70;;
80936;SDS011;70395;51.382;7.074;2023-10-13T11:29:30;10.70;;;7.97;;
80936;SDS011;70395;51.382;7.074;2023-10-13T11:32:00;16.10;;;7.87;;
80936;SDS011;70395;51.382;7.074;2023-10-13T11:34:28;14.73;;;7.23;;
80936;SDS011;70395;51.382;7.074;2023-10-13T11:37:04;13.40;;;7.50;;
80936;SDS011;70395;51.382;7.074;2023-10-13T11:39:50;12.00;;;6.70;;
80936;SDS011;70395;51.382;7.074;2023-10-13T11:42:17;9.43;;;6.90;;
80936;SDS011;70395;51.382;7.074;2023-10-13T11:44:43;13.73;;;7.77;;
80936;SDS011;70395;51.382;7.074;2023-10-13T11:47:09;13.33;;;7.20;;
80936;SDS011;70395;51.382;7.074;2023-10-13T11:49:54;13.57;;;7.70;;
80936;SDS011;70395;51.382;7.074;2023-10-13T11:52:23;10.87;;;7.47;;
80936;SDS011;70395;51.382;7.074;2023-10-13T11:54:52;12.20;;;7.47;;
80936;SDS011;70395;51.382;7.074;2023-10-13T11:57:17;12.17;;;6.90;;
80936;SDS011;70395;51.382;7.074;2023-10-13T11:59:44;12.40;;;7.40;;
80936;SDS011;70395;51.382;7.074;2023-10-13T12:02:18;10.97;;;6.93;;
80936;SDS011;70395;51.382;7.074;2023-10-13T12:04:51;15.30;;;7.70;;
80936;SDS011;70395;51.382;7.074;2023-10-13T12:07:19;11.90;;;7.00;;
80936;SDS011;70395;51.382;7.074;2023-10-13T12:09:52;10.67;;;6.33;;
80936;SDS011;70395;51.382;7.074;2023-10-13T12:12:25;10.73;;;7.23;;
80936;SDS011;70395;51.382;7.074;2023-10-13T12:14:53;10.07;;;6.57;;
80936;SDS011;70395;51.382;7.074;2023-10-13T12:17:27;12.03;;;6.67;;
80936;SDS011;70395;51.382;7.074;2023-10-13T12:20:04;15.87;;;6.53;;
80936;SDS011;70395;51.382;7.074;2023-10-13T12:22:35;13.23;;;7.30;;
80936;SDS011;70395;51.382;7.074;2023-10-13T12:25:05;12.57;;;7.20;;
80936;SDS011;70395;51.382;7.074;2023-10-13T12:27:50;9.83;;;6.60;;
80936;SDS011;70395;51.382;7.074;2023-10-13T12:30:22;16.70;;;6.67;;
80936;SDS011;70395;51.382;7.074;2023-10-13T12:33:09;12.10;;;6.60;;
80936;SDS011;70395;51.382;7.074;2023-10-13T12:35:35;11.30;;;7.00;;
80936;SDS011;70395;51.382;7.074;2023-10-13T12:38:25;15.00;;;6.80;;
80936;SDS011;70395;51.382;7.074;2023-10-13T12:41:09;10.37;;;6.17;;
80936;SDS011;70395;51.382;7.074;2023-10-13T12:43:54;8.83;;;5.90;;
80936;SDS011;70395;51.382;7.074;2023-10-13T12:46:38;11.00;;;5.83;;
80936;SDS011;70395;51.382;7.074;2023-10-13T12:49:22;12.77;;;6.20;;
80936;SDS011;70395;51.382;7.074;2023-10-13T12:52:14;14.93;;;7.10;;
80936;SDS011;70395;51.382;7.074;2023-10-13T12:54:47;15.53;;;7.10;;
80936;SDS011;70395;51.382;7.074;2023-10-13T12:57:23;11.97;;;6.20;;
80936;SDS011;70395;51.382;7.074;2023-10-13T12:59:53;9.60;;;6.73;;
80936;SDS011;70395;51.382;7.074;2023-10-13T13:02:20;13.10;;;7.50;;
80936;SDS011;70395;51.382;7.074;2023-10-13T13:04:49;12.50;;;6.23;;
80936;SDS011;70395;51.382;7.074;2023-10-13T13:07:19;14.97;;;7.57;;
80936;SDS011;70395;51.382;7.074;2023-10-13T13:09:45;16.40;;;6.70;;
80936;SDS011;70395;51.382;7.074;2023-10-13T13:12:11;13.37;;;7.30;;
80936;SDS011;70395;51.382;7.074;2023-10-13T13:14:38;9.67;;;6.47;;
80936;SDS011;70395;51.382;7.074;2023-10-13T13:17:06;17.67;;;6.43;;
80936;SDS011;70395;51.382;7.074;2023-10-13T13:19:32;16.17;;;8.10;;
80936;SDS011;70395;51.382;7.074;2023-10-13T13:22:01;14.60;;;6.83;;
80936;SDS011;70395;51.382;7.074;2023-10-13T13:24:29;18.30;;;6.57;;
80936;SDS011;70395;51.382;7.074;2023-10-13T13:26:57;14.97;;;7.10;;
80936;SDS011;70395;51.382;7.074;2023-10-13T13:29:30;12.00;;;6.40;;
80936;SDS011;70395;51.382;7.074;2023-10-13T13:31:56;11.63;;;6.90;;
80936;SDS011;70395;51.382;7.074;2023-10-13T13:34:25;14.37;;;6.97;;
80936;SDS011;70395;51.382;7.074;2023-10-13T13:36:51;12.47;;;6.37;;
80936;SDS011;70395;51.382;7.074;2023-10-13T13:39:20;17.13;;;6.57;;
80936;SDS011;70395;51.382;7.074;2023-10-13T13:41:55;16.47;;;6.83;;
80936;SDS011;70395;51.382;7.074;2023-10-13T13:44:24;13.40;;;6.60;;
80936;SDS011;70395;51.382;7.074;2023-10-13T13:47:01;17.20;;;6.73;;
80936;SDS011;70395;51.382;7.074;2023-10-13T13:49:42;14.17;;;7.00;;
80936;SDS011;70395;51.382;7.074;2023-10-13T13:52:16;12.17;;;6.33;;
80936;SDS011;70395;51.382;7.074;2023-10-13T13:54:46;12.50;;;6.37;;
80936;SDS011;70395;51.382;7.074;2023-10-13T13:57:13;13.63;;;5.87;;
80936;SDS011;70395;51.382;7.074;2023-10-13T13:59:39;14.97;;;6.90;;
80936;SDS011;70395;51.382;7.074;2023-10-13T14:02:09;16.93;;;7.00;;
80936;SDS011;70395;51.382;7.074;2023-10-13T14:04:47;12.50;;;6.47;;
80936;SDS011;70395;51.382;7.074;2023-10-13T14:07:15;16.53;;;7.73;;
80936;SDS011;70395;51.382;7.074;2023-10-13T14:09:45;15.37;;;6.90;;
80936;SDS011;70395;51.382;7.074;2023-10-13T14:12:16;12.97;;;6.50;;
80936;SDS011;70395;51.382;7.074;2023-10-13T14:15:06;12.70;;;6.40;;
80936;SDS011;70395;51.382;7.074;2023-10-13T14:17:46;15.00;;;6.80;;
80936;SDS011;70395;51.382;7.074;2023-10-13T14:20:14;15.10;;;6.73;;
80936;SDS011;70395;51.382;7.074;2023-10-13T14:22:44;12.73;;;7.43;;
80936;SDS011;70395;51.382;7.074;2023-10-13T14:25:14;17.10;;;6.50;;
80936;SDS011;70395;51.382;7.074;2023-10-13T14:27:43;18.23;;;7.90;;
80936;SDS011;70395;51.382;7.074;2023-10-13T14:30:09;16.00;;;6.27;;
80936;SDS011;70395;51.382;7.074;2023-10-13T14:32:44;11.30;;;6.60;;
80936;SDS011;70395;51.382;7.074;2023-10-13T14:35:10;10.13;;;5.93;;
80936;SDS011;70395;51.382;7.074;2023-10-13T14:37:39;11.57;;;6.13;;
80936;SDS011;70395;51.382;7.074;2023-10-13T14:40:06;11.40;;;6.53;;
80936;SDS011;70395;51.382;7.074;2023-10-13T14:42:37;13.37;;;7.17;;
80936;SDS011;70395;51.382;7.074;2023-10-13T14:45:06;15.83;;;6.17;;
80936;SDS011;70395;51.382;7.074;2023-10-13T14:47:41;16.30;;;7.77;;
80936;SDS011;70395;51.382;7.074;2023-10-13T14:50:08;18.57;;;6.97;;
80936;SDS011;70395;51.382;7.074;2023-10-13T14:52:42;17.63;;;7.40;;
80936;SDS011;70395;51.382;7.074;2023-10-13T14:55:08;10.77;;;6.50;;
80936;SDS011;70395;51.382;7.074;2023-10-13T14:57:44;15.57;;;6.63;;
80936;SDS011;70395;51.382;7.074;2023-10-13T15:00:15;14.80;;;7.00;;
80936;SDS011;70395;51.382;7.074;2023-10-13T15:02:50;12.00;;;6.13;;
80936;SDS011;70395;51.382;7.074;2023-10-13T15:05:17;11.37;;;6.70;;
80936;SDS011;70395;51.382;7.074;2023-10-13T15:07:43;12.80;;;6.63;;
80936;SDS011;70395;51.382;7.074;2023-10-13T15:10:13;10.90;;;6.10;;
80936;SDS011;70395;51.382;7.074;2023-10-13T15:12:41;16.47;;;6.30;;
80936;SDS011;70395;51.382;7.074;2023-10-13T15:15:14;12.70;;;5.43;;
80936;SDS011;70395;51.382;7.074;2023-10-13T15:17:44;14.30;;;5.60;;
80936;SDS011;70395;51.382;7.074;2023-10-13T15:20:10;15.80;;;6.70;;
80936;SDS011;70395;51.382;7.074;2023-10-13T15:22:43;11.03;;;6.47;;
80936;SDS011;70395;51.382;7.074;2023-10-13T15:25:09;10.53;;;6.10;;
80936;SDS011;70395;51.382;7.074;2023-10-13T15:27:58;11.30;;;6.17;;